Time;durP1;ratioP1;P1;durP2;ratioP2;P2;SDS_P1;SDS_P2;PMS_P1;PMS_P2;Temp;Humidity;BMP_temperature;BMP_pressure;BME280_temperature;BME280_humidity;BME280_pressure;Samples;Min_cycle;Max_cycle;Signal;HPM_P1;HPM_P2
2022/09/07 00:00:38;;;;;;;7.13;4.57;;;;;;;20.24;100.00;101252.81;5066844;28;20068;-62
2022/09/07 00:03:04;;;;;;;7.20;4.05;;;;;;;20.21;100.00;101236.41;5062419;28;20789;-62
2022/09/07 00:05:31;;;;;;;7.25;4.03;;;;;;;20.17;100.00;101214.69;5070605;28;20106;-63
2022/09/07 00:07:58;;;;;;;7.88;3.85;;;;;;;20.10;100.00;101235.16;5070438;28;20048;-62
2022/09/07 00:10:25;;;;;;;9.80;4.75;;;;;;;19.90;100.00;101240.41;5057168;28;20526;-62
2022/09/07 00:12:51;;;;;;;7.85;4.15;;;;;;;19.78;100.00;101256.09;5065099;28;20056;-60
2022/09/07 00:15:18;;;;;;;8.55;4.68;;;;;;;19.67;100.00;101268.06;5061867;28;20052;-61
2022/09/07 00:17:44;;;;;;;6.18;3.95;;;;;;;19.68;100.00;101256.44;5067184;28;20493;-61
2022/09/07 00:20:11;;;;;;;7.50;4.20;;;;;;;19.72;100.00;101265.69;5061424;28;20079;-62
2022/09/07 00:22:38;;;;;;;7.40;3.95;;;;;;;19.74;100.00;101284.94;5068626;28;20045;-63
2022/09/07 00:25:05;;;;;;;6.10;4.03;;;;;;;19.85;100.00;101277.41;5056933;28;20689;-62
2022/09/07 00:27:31;;;;;;;4.95;3.97;;;;;;;19.88;100.00;101261.06;5067734;28;20053;-62
2022/09/07 00:29:58;;;;;;;8.90;4.65;;;;;;;19.92;100.00;101238.34;5066976;28;20049;-63
2022/09/07 00:32:24;;;;;;;5.95;4.13;;;;;;;19.76;100.00;101239.50;5063133;28;20135;-62
2022/09/07 00:34:51;;;;;;;6.07;4.13;;;;;;;19.72;100.00;101222.28;5069436;28;20056;-62
2022/09/07 00:37:17;;;;;;;9.50;4.03;;;;;;;19.73;100.00;101224.75;5061067;28;20424;-62
2022/09/07 00:39:44;;;;;;;6.05;3.88;;;;;;;19.74;100.00;101220.25;5062155;28;20060;-61
2022/09/07 00:42:10;;;;;;;6.45;3.58;;;;;;;19.72;100.00;101219.63;5055453;28;20048;-61
2022/09/07 00:44:39;;;;;;;6.35;4.45;;;;;;;19.75;100.00;101214.72;5066783;28;20060;-62
2022/09/07 00:47:12;;;;;;;5.88;3.70;;;;;;;19.78;100.00;101218.84;5066066;28;20049;-62
2022/09/07 00:49:41;;;;;;;6.50;3.58;;;;;;;19.77;100.00;101209.19;5058302;28;20049;-61
2022/09/07 00:52:09;;;;;;;4.68;2.85;;;;;;;19.75;100.00;101209.38;5064999;28;20056;-62
2022/09/07 00:54:39;;;;;;;;;;;;;;;19.84;100.00;101202.06;5051471;28;20671;-62
2022/09/07 00:57:05;;;;;;;8.25;3.83;;;;;;;19.83;100.00;101200.41;5064438;28;19925;-62
2022/09/07 00:59:38;;;;;;;6.63;3.83;;;;;;;19.86;100.00;101197.38;5059911;28;20080;-62
2022/09/07 01:02:04;;;;;;;6.55;3.72;;;;;;;19.77;100.00;101209.19;5059093;28;20048;-61
2022/09/07 01:04:31;;;;;;;5.28;3.50;;;;;;;19.75;100.00;101211.25;5066199;28;20052;-62
2022/09/07 01:06:59;;;;;;;6.72;3.72;;;;;;;19.71;100.00;101212.63;5056097;28;20048;-63
2022/09/07 01:09:26;;;;;;;11.23;3.40;;;;;;;19.67;100.00;101217.50;5059436;28;20060;-62
2022/09/07 01:11:57;;;;;;;7.20;3.47;;;;;;;19.67;100.00;101208.72;5054426;28;20044;-63
2022/09/07 01:14:31;;;;;;;5.85;3.03;;;;;;;19.60;100.00;101219.34;5066045;28;20284;-62
2022/09/07 01:17:10;;;;;;;6.53;2.47;;;;;;;19.56;100.00;101226.88;5060241;28;20048;-62
2022/09/07 01:20:14;;;;;;;5.25;2.70;;;;;;;19.59;100.00;101224.84;5061701;28;20425;-62
2022/09/07 01:23:05;;;;;;;3.60;2.03;;;;;;;19.54;100.00;101226.25;5049508;28;20066;-62
2022/09/07 01:25:45;;;;;;;3.42;2.08;;;;;;;19.52;100.00;101220.31;5054869;28;20463;-62
2022/09/07 01:28:27;;;;;;;3.78;2.08;;;;;;;19.46;100.00;101221.06;5056582;28;20058;-63
2022/09/07 01:31:07;;;;;;;2.75;2.05;;;;;;;19.42;100.00;101233.13;5061761;28;20052;-62
2022/09/07 01:34:07;;;;;;;2.58;1.30;;;;;;;19.34;100.00;101233.28;5056898;28;20110;-63
2022/09/07 01:36:39;;;;;;;3.95;1.52;;;;;;;19.33;100.00;101235.13;5054910;28;20699;-63
2022/09/07 01:39:06;;;;;;;3.58;1.70;;;;;;;19.33;100.00;101245.75;5057911;28;20052;-62
2022/09/07 01:41:57;;;;;;;3.85;2.00;;;;;;;19.35;100.00;101240.25;5064903;28;20044;-62
2022/09/07 01:44:38;;;;;;;4.03;1.98;;;;;;;19.26;100.00;101244.06;5065983;28;20059;-62
2022/09/07 01:47:08;;;;;;;3.22;1.60;;;;;;;19.25;100.00;101237.09;5061456;28;20048;-62
2022/09/07 01:50:01;;;;;;;4.88;2.15;;;;;;;19.34;100.00;101231.44;5060681;28;20577;-62
2022/09/07 01:52:41;;;;;;;4.80;1.70;;;;;;;19.32;100.00;101222.81;5052310;28;20044;-62
2022/09/07 01:55:24;;;;;;;5.10;1.52;;;;;;;19.27;100.00;101224.44;5060972;28;20043;-62
2022/09/07 01:58:00;;;;;;;4.05;1.70;;;;;;;19.20;100.00;101223.56;5058012;28;20059;-62
2022/09/07 02:00:28;;;;;;;4.18;1.60;;;;;;;19.19;100.00;101222.75;5057761;28;20075;-62
2022/09/07 02:03:27;;;;;;;3.45;1.50;;;;;;;19.15;100.00;101229.44;5054375;28;20064;-62
2022/09/07 02:06:09;;;;;;;3.25;1.55;;;;;;;19.22;100.00;101226.84;5060923;28;20048;-62
2022/09/07 02:08:41;;;;;;;2.30;1.35;;;;;;;19.20;100.00;101229.72;5055568;28;20052;-62
2022/09/07 02:11:20;;;;;;;3.72;1.80;;;;;;;19.26;100.00;101214.81;5051268;28;20056;-62
2022/09/07 02:13:55;;;;;;;3.80;1.60;;;;;;;19.27;100.00;101217.28;5058058;28;20051;-62
2022/09/07 02:16:26;;;;;;;1.85;1.40;;;;;;;19.27;100.00;101208.50;5063237;28;20053;-62
2022/09/07 02:18:56;;;;;;;2.58;1.60;;;;;;;19.21;100.00;101195.94;5052969;28;20036;-62
2022/09/07 02:21:31;;;;;;;3.47;1.70;;;;;;;19.21;100.00;101203.94;5064589;28;20044;-63
2022/09/07 02:24:05;;;;;;;2.30;1.40;;;;;;;19.16;100.00;101205.34;5065546;28;20045;-62
2022/09/07 02:26:35;;;;;;;2.60;1.60;;;;;;;19.15;100.00;101208.19;5056789;28;20055;-61
2022/09/07 02:29:02;;;;;;;2.63;1.33;;;;;;;19.12;100.00;101196.09;5061865;28;20520;-62
2022/09/07 02:31:28;;;;;;;2.50;1.50;;;;;;;19.16;100.00;101191.22;5054670;28;20045;-62
2022/09/07 02:33:55;;;;;;;2.08;1.33;;;;;;;19.17;100.00;101191.03;5061789;28;20056;-62
2022/09/07 02:36:28;;;;;;;2.38;1.30;;;;;;;19.22;100.00;101198.41;5058214;28;20385;-62
2022/09/07 02:38:54;;;;;;;5.45;1.40;;;;;;;19.17;100.00;101198.19;5064075;28;20040;-62
2022/09/07 02:41:29;;;;;;;2.75;1.45;;;;;;;19.24;100.00;101190.25;5062214;28;20515;-62
2022/09/07 02:43:56;;;;;;;3.45;1.65;;;;;;;19.22;100.00;101186.97;5052109;28;20523;-61
2022/09/07 02:46:50;;;;;;;1.88;1.30;;;;;;;19.19;100.00;101182.88;5059632;28;20060;-63
2022/09/07 02:49:55;;;;;;;2.97;1.40;;;;;;;19.15;100.00;101190.41;5054728;28;20793;-62
2022/09/07 02:52:31;;;;;;;1.77;1.23;;;;;;;19.16;100.00;101186.72;5063361;28;20045;-62
2022/09/07 02:55:31;;;;;;;3.33;1.80;;;;;;;19.15;100.00;101176.28;5055895;28;20557;-62
2022/09/07 02:58:17;;;;;;;8.68;3.90;;;;;;;19.17;100.00;101182.25;5059026;28;20044;-62
2022/09/07 03:01:06;;;;;;;4.88;1.95;;;;;;;19.14;100.00;101172.78;5051557;28;20412;-63
2022/09/07 03:03:53;;;;;;;3.33;1.85;;;;;;;19.12;100.00;101164.19;5056389;28;20056;-62
2022/09/07 03:06:28;;;;;;;2.40;1.52;;;;;;;19.14;100.00;101154.19;5052772;28;20052;-62
2022/09/07 03:08:58;;;;;;;4.65;1.45;;;;;;;19.14;100.00;101148.88;5058288;28;20052;-62
2022/09/07 03:11:25;;;;;;;3.00;1.70;;;;;;;19.11;100.00;101145.78;5044671;28;20040;-62
2022/09/07 03:13:51;;;;;;;3.58;1.80;;;;;;;19.12;100.00;101156.22;5059490;28;20520;-62
2022/09/07 03:16:18;;;;;;;4.88;1.60;;;;;;;19.10;100.00;101160.09;5058641;28;20056;-62
2022/09/07 03:18:44;;;;;;;3.97;1.77;;;;;;;19.14;100.00;101161.34;5068198;28;20044;-62
2022/09/07 03:21:10;;;;;;;5.53;2.45;;;;;;;19.14;100.00;101148.06;5065294;28;20064;-63
2022/09/07 03:23:37;;;;;;;9.93;3.03;;;;;;;19.19;100.00;101152.78;5059658;28;20052;-62
2022/09/07 03:26:04;;;;;;;5.00;2.53;;;;;;;19.20;100.00;101149.94;5064506;28;20087;-62
2022/09/07 03:28:30;;;;;;;5.78;2.35;;;;;;;19.22;100.00;101147.91;5060546;28;20052;-62
2022/09/07 03:30:59;;;;;;;5.20;2.50;;;;;;;19.27;100.00;101150.81;5067635;28;20059;-62
2022/09/07 03:33:26;;;;;;;4.32;2.33;;;;;;;19.26;100.00;101145.66;5061977;28;20786;-62
2022/09/07 03:35:59;;;;;;;3.10;2.00;;;;;;;19.32;100.00;101147.53;5063537;28;20070;-62
2022/09/07 03:38:25;;;;;;;3.97;1.95;;;;;;;19.28;100.00;101152.44;5059645;28;20512;-61
2022/09/07 03:41:00;;;;;;;5.22;2.20;;;;;;;19.30;100.00;101145.06;5064643;28;20071;-62
2022/09/07 03:43:27;;;;;;;3.20;2.17;;;;;;;19.29;100.00;101148.75;5064790;28;20048;-62
2022/09/07 03:46:01;;;;;;;5.05;2.40;;;;;;;19.35;100.00;101153.28;5056923;28;20041;-62
2022/09/07 03:48:33;;;;;;;3.13;2.00;;;;;;;19.33;100.00;101160.66;5067151;28;20611;-62
2022/09/07 03:51:08;;;;;;;4.53;2.20;;;;;;;19.32;100.00;101153.66;5054269;28;20056;-61
2022/09/07 03:53:37;;;;;;;3.67;1.98;;;;;;;19.35;100.00;101157.81;5066297;28;20061;-62
2022/09/07 03:56:09;;;;;;;4.95;2.10;;;;;;;19.38;100.00;101162.72;5048522;28;20049;-62
2022/09/07 03:58:36;;;;;;;3.83;2.15;;;;;;;19.34;100.00;101162.28;5066816;28;20045;-63
2022/09/07 04:01:08;;;;;;;6.50;2.95;;;;;;;19.37;100.00;101163.75;5067444;28;20052;-63
2022/09/07 04:03:35;;;;;;;4.40;2.55;;;;;;;19.32;100.00;101163.50;5052163;28;20056;-62
2022/09/07 04:06:03;;;;;;;6.28;2.42;;;;;;;19.34;100.00;101164.94;5063131;28;20052;-63
2022/09/07 04:08:31;;;;;;;5.50;2.72;;;;;;;19.40;100.00;101163.34;5060663;28;20055;-62
2022/09/07 04:11:00;;;;;;;5.35;2.40;;;;;;;19.41;100.00;101149.03;5066377;28;20041;-62
2022/09/07 04:13:26;;;;;;;;;;;;;;;19.47;100.00;101142.91;5062909;28;20044;-62
2022/09/07 04:15:53;;;;;;;6.80;2.80;;;;;;;19.42;100.00;101144.53;5059761;28;20316;-62
2022/09/07 04:18:20;;;;;;;4.82;2.40;;;;;;;19.40;100.00;101142.06;5062372;28;20141;-62
2022/09/07 04:20:49;;;;;;;6.68;2.80;;;;;;;19.38;100.00;101138.78;5058860;28;20052;-63
2022/09/07 04:23:19;;;;;;;4.22;2.85;;;;;;;19.41;100.00;101135.72;5067063;28;20786;-62
2022/09/07 04:25:50;;;;;;;4.50;3.10;;;;;;;19.44;100.00;101134.50;5060362;28;20049;-64
2022/09/07 04:28:18;;;;;;;6.18;3.88;;;;;;;19.45;100.00;101139.63;5066416;28;20047;-61
2022/09/07 04:30:45;;;;;;;8.45;4.80;;;;;;;19.42;100.00;101136.53;5057846;28;20522;-62
2022/09/07 04:33:13;;;;;;;6.97;4.90;;;;;;;19.38;100.00;101143.28;5062036;28;20094;-62
2022/09/07 04:35:41;;;;;;;7.45;4.80;;;;;;;19.42;100.00;101145.34;5061604;28;20048;-63
2022/09/07 04:38:12;;;;;;;6.20;4.70;;;;;;;19.45;100.00;101154.78;5064871;28;20045;-62
2022/09/07 04:40:39;;;;;;;7.25;4.18;;;;;;;19.35;100.00;101150.63;5066977;28;20409;-62
2022/09/07 04:43:07;;;;;;;11.55;5.50;;;;;;;19.31;100.00;101157.38;5060245;28;20721;-61
2022/09/07 04:45:35;;;;;;;8.25;4.60;;;;;;;19.35;100.00;101147.97;5062111;28;20500;-61
2022/09/07 04:48:03;;;;;;;6.68;5.07;;;;;;;19.35;100.00;101139.19;5046470;28;20127;-62
2022/09/07 04:50:30;;;;;;;7.50;5.63;;;;;;;19.40;100.00;101138.59;5066146;28;20562;-62
2022/09/07 04:52:56;;;;;;;7.20;5.50;;;;;;;19.39;100.00;101139.63;5062875;28;20052;-62
2022/09/07 04:55:23;;;;;;;7.90;5.57;;;;;;;19.38;100.00;101132.63;5064747;28;20056;-62
2022/09/07 04:57:49;;;;;;;7.88;6.13;;;;;;;19.34;100.00;101124.22;5060591;28;20530;-62
2022/09/07 05:00:16;;;;;;;8.25;6.38;;;;;;;19.35;100.00;101124.03;5052400;28;20041;-62
2022/09/07 05:02:42;;;;;;;8.35;6.45;;;;;;;19.34;100.00;101124.22;5067546;28;20048;-62
2022/09/07 05:05:09;;;;;;;8.43;5.88;;;;;;;19.22;100.00;101131.13;5060338;28;20044;-62
2022/09/07 05:07:35;;;;;;;9.95;6.78;;;;;;;19.17;100.00;101134.38;5066728;28;20049;-62
2022/09/07 05:10:02;;;;;;;10.63;6.43;;;;;;;19.15;100.00;101131.91;5059418;28;20048;-61
2022/09/07 05:12:29;;;;;;;11.15;6.63;;;;;;;19.09;100.00;101151.31;5057739;28;20051;-62
2022/09/07 05:14:55;;;;;;;9.02;6.20;;;;;;;19.06;100.00;101164.16;5053908;28;20059;-61
2022/09/07 05:17:22;;;;;;;10.50;7.07;;;;;;;19.04;100.00;101152.91;5052278;28;20045;-62
2022/09/07 05:19:48;;;;;;;9.40;7.38;;;;;;;19.04;100.00;101156.38;5066020;28;20044;-62
2022/09/07 05:22:15;;;;;;;10.80;7.05;;;;;;;19.07;100.00;101157.81;5059138;28;20048;-62
2022/09/07 05:24:42;;;;;;;11.02;7.85;;;;;;;19.06;100.00;101157.00;5065624;28;20056;-62
2022/09/07 05:27:08;;;;;;;9.80;7.07;;;;;;;19.02;100.00;101161.06;5050548;28;20044;-62
2022/09/07 05:29:34;;;;;;;12.38;7.70;;;;;;;19.08;100.00;101151.50;5060996;28;20055;-62
2022/09/07 05:32:21;;;;;;;10.30;8.07;;;;;;;19.03;100.00;101151.25;5059506;28;20052;-62
2022/09/07 05:34:47;;;;;;;8.25;6.43;;;;;;;19.04;100.00;101156.38;5052957;28;20048;-62
2022/09/07 05:37:18;;;;;;;12.05;7.90;;;;;;;19.03;100.00;101154.72;5061579;28;20511;-62
2022/09/07 05:39:44;;;;;;;12.00;8.45;;;;;;;19.04;100.00;101167.00;5052540;28;20044;-62
2022/09/07 05:42:11;;;;;;;12.25;8.55;;;;;;;18.94;100.00;101169.19;5060773;28;20070;-60
2022/09/07 05:44:37;;;;;;;14.30;9.18;;;;;;;18.93;100.00;101167.53;5057396;28;20053;-62
2022/09/07 05:47:12;;;;;;;14.32;10.13;;;;;;;18.92;100.00;101173.88;5061397;28;20127;-63
2022/09/07 05:49:38;;;;;;;14.93;10.82;;;;;;;18.88;100.00;101185.91;5062167;28;20527;-62
2022/09/07 05:52:05;;;;;;;14.25;11.00;;;;;;;18.81;100.00;101185.84;5057200;28;20076;-62
2022/09/07 05:54:31;;;;;;;17.33;12.02;;;;;;;18.85;100.00;101176.47;5058325;28;20496;-62
2022/09/07 05:56:58;;;;;;;14.93;11.98;;;;;;;18.86;100.00;101170.16;5052877;28;20044;-62
2022/09/07 05:59:24;;;;;;;13.23;11.40;;;;;;;18.97;100.00;101179.41;5064873;28;20091;-63
2022/09/07 06:01:50;;;;;;;17.27;12.73;;;;;;;18.98;100.00;101177.59;5058338;28;20048;-64
2022/09/07 06:04:18;;;;;;;14.77;11.93;;;;;;;19.00;100.00;101181.72;5064370;28;20060;-62
2022/09/07 06:06:44;;;;;;;17.80;13.45;;;;;;;18.90;100.00;101179.38;5062352;28;20059;-62
2022/09/07 06:09:30;;;;;;;16.83;13.13;;;;;;;18.89;100.00;101172.41;5050271;28;20048;-61
2022/09/07 06:11:57;;;;;;;18.95;15.57;;;;;;;18.92;100.00;101185.31;5061550;28;20803;-63
2022/09/07 06:14:23;;;;;;;16.98;15.05;;;;;;;18.93;100.00;101191.44;5048222;28;20075;-62
2022/09/07 06:16:50;;;;;;;19.73;15.20;;;;;;;18.96;100.00;101183.09;5061403;28;20485;-62
2022/09/07 06:19:16;;;;;;;18.98;14.95;;;;;;;19.02;100.00;101179.69;5051661;28;20047;-62
2022/09/07 06:21:43;;;;;;;17.17;14.50;;;;;;;18.93;100.00;101184.31;5060562;28;20059;-62
2022/09/07 06:24:09;;;;;;;19.48;14.93;;;;;;;18.99;100.00;101184.56;5058336;28;20064;-62
2022/09/07 06:26:36;;;;;;;16.77;14.98;;;;;;;18.88;100.00;101176.09;5057558;28;20046;-62
2022/09/07 06:29:02;;;;;;;20.10;15.57;;;;;;;18.94;100.00;101182.47;5062094;28;20055;-61
2022/09/07 06:31:29;;;;;;;19.00;15.70;;;;;;;18.99;100.00;101185.38;5056492;28;20045;-62
2022/09/07 06:33:56;;;;;;;18.13;16.15;;;;;;;19.01;100.00;101183.34;5060230;28;20442;-62
2022/09/07 06:36:26;;;;;;;19.38;16.00;;;;;;;18.97;100.00;101190.06;5051550;28;20048;-62
2022/09/07 06:38:54;;;;;;;19.00;14.95;;;;;;;18.93;100.00;101194.97;5057158;28;20692;-62
2022/09/07 06:41:24;;;;;;;23.33;17.50;;;;;;;18.95;100.00;101194.75;5054617;28;20080;-62
2022/09/07 06:44:11;;;;;;;20.90;16.90;;;;;;;18.90;100.00;101202.50;5057840;28;20083;-62
2022/09/07 06:46:37;;;;;;;22.47;16.47;;;;;;;18.88;100.00;101205.34;5061405;28;20059;-62
2022/09/07 06:49:24;;;;;;;21.52;16.00;;;;;;;18.75;100.00;101199.88;5055582;28;20064;-63
2022/09/07 06:51:51;;;;;;;20.88;16.75;;;;;;;18.76;100.00;101199.69;5050712;28;20090;-62
2022/09/07 06:54:17;;;;;;;21.60;17.00;;;;;;;18.74;100.00;101198.25;5051386;28;20064;-62
2022/09/07 06:57:07;;;;;;;20.77;17.08;;;;;;;18.75;100.00;101198.03;5058303;28;20052;-62
2022/09/07 06:59:34;;;;;;;28.17;17.15;;;;;;;18.76;100.00;101209.50;5054224;28;20075;-62
2022/09/07 07:02:01;;;;;;;21.02;18.15;;;;;;;18.70;100.00;101213.75;5064744;28;20045;-63
2022/09/07 07:04:28;;;;;;;26.90;18.77;;;;;;;18.58;100.00;101207.25;5054187;28;20048;-62
2022/09/07 07:06:54;;;;;;;23.50;18.55;;;;;;;18.57;100.00;101214.41;5053544;28;20052;-63
2022/09/07 07:09:20;;;;;;;22.45;19.13;;;;;;;18.55;100.00;101221.75;5060425;28;20848;-63
2022/09/07 07:11:47;;;;;;;23.00;18.65;;;;;;;18.53;100.00;101217.66;5056214;28;20049;-62
2022/09/07 07:14:14;;;;;;;24.02;18.52;;;;;;;18.50;100.00;101212.69;5063772;28;20416;-62
2022/09/07 07:16:40;;;;;;;21.65;17.98;;;;;;;18.62;100.00;101211.22;5056346;28;20135;-62
2022/09/07 07:19:07;;;;;;;23.23;16.63;;;;;;;18.63;100.00;101210.19;5059475;28;20051;-62
2022/09/07 07:21:33;;;;;;;22.38;17.92;;;;;;;18.67;100.00;101216.75;5054379;28;20648;-62
2022/09/07 07:24:21;;;;;;;23.85;18.55;;;;;;;18.68;100.00;101214.91;5062635;28;20056;-63
2022/09/07 07:26:48;;;;;;;22.25;18.88;;;;;;;18.70;100.00;101218.19;5064219;28;20052;-62
2022/09/07 07:29:15;;;;;;;24.02;17.48;;;;;;;18.69;100.00;101217.38;5056867;28;20048;-61
2022/09/07 07:31:45;;;;;;;22.13;17.92;;;;;;;18.63;100.00;101220.00;5060632;28;20072;-61
2022/09/07 07:34:12;;;;;;;23.15;18.27;;;;;;;18.66;100.00;101208.97;5055296;28;20071;-62
2022/09/07 07:36:38;;;;;;;22.73;17.95;;;;;;;18.69;100.00;101212.06;5061099;28;20105;-62
2022/09/07 07:39:04;;;;;;;23.67;17.38;;;;;;;18.70;100.00;101212.88;5057103;28;20139;-63
2022/09/07 07:41:32;;;;;;;23.98;17.80;;;;;;;18.82;100.00;101224.72;5057658;28;20049;-63
2022/09/07 07:44:19;;;;;;;23.55;17.10;;;;;;;18.69;100.00;101235.19;5050775;28;21151;-62
2022/09/07 07:46:47;;;;;;;21.88;16.45;;;;;;;18.77;100.00;101235.03;5058752;28;20048;-63
2022/09/07 07:49:14;;;;;;;23.98;17.42;;;;;;;18.70;100.00;101227.03;5062599;28;20039;-62
2022/09/07 07:51:41;;;;;;;21.63;18.25;;;;;;;18.79;100.00;101225.03;5057282;28;20053;-62
2022/09/07 07:54:27;;;;;;;23.77;16.95;;;;;;;18.84;100.00;101233.31;5064078;28;20079;-63
2022/09/07 07:56:53;;;;;;;23.17;17.38;;;;;;;18.84;100.00;101229.84;5056736;28;20048;-62
2022/09/07 07:59:20;;;;;;;21.58;18.10;;;;;;;18.85;100.00;101231.47;5055456;28;20141;-64
2022/09/07 08:01:46;;;;;;;23.92;19.80;;;;;;;18.93;100.00;101239.31;5057428;28;20070;-62
2022/09/07 08:04:13;;;;;;;21.55;18.60;;;;;;;18.98;100.00;101239.56;5067193;28;20048;-63
2022/09/07 08:06:42;;;;;;;23.40;18.90;;;;;;;18.99;100.00;101246.50;5067188;28;20106;-63
2022/09/07 08:09:10;;;;;;;22.42;18.17;;;;;;;18.99;100.00;101243.84;5057096;28;20082;-63
2022/09/07 08:11:38;;;;;;;22.60;19.25;;;;;;;18.99;100.00;101249.16;5057572;28;20439;-63
2022/09/07 08:14:07;;;;;;;24.95;16.85;;;;;;;19.04;100.00;101252.09;5050257;28;20044;-63
2022/09/07 08:16:34;;;;;;;22.08;18.38;;;;;;;19.12;100.00;101259.09;5063013;28;20056;-63
2022/09/07 08:19:01;;;;;;;21.75;18.30;;;;;;;19.17;100.00;101254.84;5059906;28;20049;-63
2022/09/07 08:21:27;;;;;;;21.17;18.02;;;;;;;19.21;100.00;101260.63;5066207;28;20096;-63
2022/09/07 08:23:54;;;;;;;25.42;18.75;;;;;;;19.39;100.00;101259.31;5065907;28;20049;-62
2022/09/07 08:26:20;;;;;;;23.00;18.00;;;;;;;19.53;100.00;101255.72;5057749;28;20098;-64
2022/09/07 08:28:47;;;;;;;23.08;17.83;;;;;;;19.71;100.00;101260.53;5061755;28;20102;-62
2022/09/07 08:31:15;;;;;;;20.80;18.35;;;;;;;19.80;100.00;101259.38;5058443;28;20114;-63
2022/09/07 08:33:42;;;;;;;22.58;17.90;;;;;;;19.88;100.00;101256.56;5066709;28;20109;-63
2022/09/07 08:36:19;;;;;;;21.05;17.15;;;;;;;19.94;100.00;101249.63;5056407;28;20106;-66
2022/09/07 08:38:46;;;;;;;22.00;17.63;;;;;;;20.01;100.00;101263.78;5061739;28;20075;-62
2022/09/07 08:41:38;;;;;;;21.47;16.93;;;;;;;20.11;100.00;101258.91;5052512;28;20075;-63
2022/09/07 08:44:11;;;;;;;22.60;18.52;;;;;;;20.22;100.00;101260.19;5061640;28;20052;-63
2022/09/07 08:46:50;;;;;;;23.25;17.85;;;;;;;20.30;100.00;101251.19;5064165;28;20057;-62
2022/09/07 08:49:24;;;;;;;23.45;18.83;;;;;;;20.53;100.00;101258.84;5062143;28;20553;-63
2022/09/07 08:52:02;;;;;;;25.38;19.52;;;;;;;20.53;100.00;101257.00;5064943;28;20053;-62
2022/09/07 08:54:28;;;;;;;22.60;18.92;;;;;;;20.53;100.00;101264.97;5051380;28;20126;-63
2022/09/07 08:56:59;;;;;;;27.05;20.15;;;;;;;20.61;100.00;101264.00;5053613;28;20056;-63
2022/09/07 08:59:56;;;;;;;25.70;19.77;;;;;;;20.73;100.00;101273.03;5051513;28;20530;-63
2022/09/07 09:02:24;;;;;;;22.02;18.70;;;;;;;20.72;100.00;101274.09;5064202;28;20174;-64
2022/09/07 09:04:53;;;;;;;24.77;18.55;;;;;;;20.89;100.00;101279.81;5058858;28;20059;-64
2022/09/07 09:08:25;;;;;;;23.23;19.33;;;;;;;21.07;100.00;101279.25;5059694;28;20102;-64
2022/09/07 09:11:20;;;;;;;22.45;18.73;;;;;;;21.27;100.00;101265.91;5029933;28;20049;-63
2022/09/07 09:13:59;;;;;;;22.52;19.95;;;;;;;21.37;100.00;101275.34;5062307;28;20145;-63
2022/09/07 09:16:34;;;;;;;23.40;19.95;;;;;;;21.39;100.00;101270.63;5054188;28;20053;-63
2022/09/07 09:19:38;;;;;;;20.60;17.60;;;;;;;21.27;100.00;101278.44;5061112;28;20048;-64
2022/09/07 09:22:20;;;;;;;23.60;19.48;;;;;;;21.48;100.00;101275.56;5047526;28;20562;-62
2022/09/07 09:24:52;;;;;;;20.95;18.65;;;;;;;21.70;100.00;101276.13;5057383;28;20110;-63
2022/09/07 09:27:18;;;;;;;23.38;20.42;;;;;;;21.65;100.00;101278.59;5057740;28;20326;-63
2022/09/07 09:29:44;;;;;;;27.95;20.42;;;;;;;21.80;100.00;101277.56;5058690;28;20113;-62
2022/09/07 09:32:51;;;;;;;22.80;19.05;;;;;;;22.16;100.00;101270.84;5065417;28;20053;-64
2022/09/07 09:35:36;;;;;;;24.70;20.07;;;;;;;22.33;100.00;101272.03;5015805;28;20135;-64
2022/09/07 09:38:03;;;;;;;25.88;20.95;;;;;;;22.53;100.00;101273.78;5015978;28;20041;-63
2022/09/07 09:40:34;;;;;;;19.80;17.75;;;;;;;22.68;100.00;101266.28;5012537;28;20057;-64
2022/09/07 09:43:19;;;;;;;19.33;16.10;;;;;;;22.69;100.00;101270.56;5016673;28;20045;-63
2022/09/07 09:45:49;;;;;;;21.02;17.00;;;;;;;22.93;100.00;101276.16;5014625;28;21051;-63
2022/09/07 09:48:39;;;;;;;19.58;17.25;;;;;;;23.08;100.00;101274.03;5014343;28;20045;-63
2022/09/07 09:51:07;;;;;;;20.25;17.23;;;;;;;23.24;100.00;101276.13;5007307;28;20136;-63
2022/09/07 09:54:28;;;;;;;19.48;17.42;;;;;;;23.27;100.00;101274.91;5007943;28;20112;-63
2022/09/07 09:56:55;;;;;;;18.88;16.73;;;;;;;23.34;100.00;101274.84;5011924;28;20049;-63
2022/09/07 09:59:27;;;;;;;19.35;15.57;;;;;;;23.57;100.00;101269.66;5020886;28;20124;-63
2022/09/07 10:02:31;;;;;;;18.80;16.52;;;;;;;23.86;100.00;101267.31;5010996;28;20128;-63
2022/09/07 10:05:47;;;;;;;18.25;16.35;;;;;;;24.10;100.00;101275.50;5017369;28;20111;-64
2022/09/07 10:08:27;;;;;;;18.42;16.10;;;;;;;23.95;100.00;101263.28;5054543;28;20424;-63
2022/09/07 10:11:01;;;;;;;20.30;17.20;;;;;;;24.23;100.00;101259.25;5061200;28;20274;-63
2022/09/07 10:13:30;;;;;;;18.75;16.60;;;;;;;24.37;100.00;101259.88;5050236;28;20066;-63
2022/09/07 10:16:03;;;;;;;18.00;15.25;;;;;;;24.56;100.00;101257.97;5062737;28;20052;-63
2022/09/07 10:18:37;;;;;;;16.30;14.60;;;;;;;24.53;98.67;101259.25;5047957;28;20049;-63
2022/09/07 10:21:24;;;;;;;20.40;17.83;;;;;;;24.66;95.29;101256.38;5046753;28;20098;-64
2022/09/07 10:23:57;;;;;;;20.30;16.48;;;;;;;24.94;100.00;101257.59;5045976;28;20044;-62
2022/09/07 10:26:30;;;;;;;19.15;16.83;;;;;;;24.92;92.51;101257.00;5062111;28;20048;-63
2022/09/07 10:29:21;;;;;;;16.75;14.70;;;;;;;25.05;92.29;101253.28;5063959;28;20044;-64
2022/09/07 10:31:59;;;;;;;19.27;17.13;;;;;;;24.93;91.53;101255.94;5049885;28;20057;-63
2022/09/07 10:34:43;;;;;;;17.73;15.82;;;;;;;24.97;92.94;101253.63;5060517;28;20041;-63
2022/09/07 10:37:32;;;;;;;17.42;15.40;;;;;;;25.09;90.51;101254.47;5042951;28;20429;-63
2022/09/07 10:40:20;;;;;;;16.17;14.32;;;;;;;25.52;90.85;101250.63;5063207;28;20106;-64
2022/09/07 10:43:19;;;;;;;15.85;14.20;;;;;;;25.50;85.50;101244.69;5052990;28;20463;-65
2022/09/07 10:46:18;;;;;;;15.88;14.18;;;;;;;25.39;89.24;101254.38;5052225;28;20056;-63
2022/09/07 10:49:24;;;;;;;16.42;13.98;;;;;;;25.46;93.05;101248.84;5052853;28;20048;-63
2022/09/07 10:52:03;;;;;;;17.08;13.95;;;;;;;25.91;90.85;101242.03;5061967;28;20463;-63
2022/09/07 10:54:57;;;;;;;19.48;13.95;;;;;;;25.87;85.26;101228.22;5055697;28;20079;-63
2022/09/07 10:57:53;;;;;;;15.10;11.68;;;;;;;25.71;84.34;101242.41;5060171;28;20075;-63
2022/09/07 11:00:21;;;;;;;12.07;10.75;;;;;;;25.72;83.88;101244.03;5050084;28;20048;-63
2022/09/07 11:03:09;;;;;;;13.52;10.90;;;;;;;25.87;82.05;101243.53;5063650;28;20044;-63
2022/09/07 11:06:18;;;;;;;19.52;15.80;;;;;;;25.91;79.50;101242.84;5056752;28;20049;-63
2022/09/07 11:09:07;;;;;;;11.93;10.60;;;;;;;25.84;81.35;101236.78;5059896;28;20040;-64
2022/09/07 11:11:48;;;;;;;14.63;9.48;;;;;;;25.92;83.71;101235.63;5051985;28;20101;-63
2022/09/07 11:14:40;;;;;;;9.40;7.80;;;;;;;26.23;81.58;101240.50;5047404;28;20045;-63
2022/09/07 11:17:40;;;;;;;11.45;8.55;;;;;;;25.78;78.79;101248.47;5054219;28;20056;-62
2022/09/07 11:20:28;;;;;;;12.30;8.82;;;;;;;25.71;78.16;101250.47;5060833;28;20052;-63
2022/09/07 11:23:16;;;;;;;11.70;7.85;;;;;;;25.46;78.74;101251.53;5057597;28;20738;-64
2022/09/07 11:26:06;;;;;;;12.40;7.53;;;;;;;25.47;78.55;101250.50;5062043;28;20455;-57
2022/09/07 11:28:54;;;;;;;10.30;6.65;;;;;;;25.46;83.26;101248.84;5052390;28;20056;-60
2022/09/07 11:31:46;;;;;;;11.10;6.85;;;;;;;25.48;83.36;101245.94;5051923;28;20088;-63
2022/09/07 11:34:19;;;;;;;9.30;6.43;;;;;;;25.59;77.71;101243.25;5053318;28;20074;-63
2022/09/07 11:37:05;;;;;;;9.10;5.82;;;;;;;25.65;79.84;101250.34;5063904;28;20053;-62
2022/09/07 11:39:57;;;;;;;9.43;5.93;;;;;;;25.64;77.81;101237.19;5059027;28;20048;-63
2022/09/07 11:42:32;;;;;;;11.63;7.40;;;;;;;25.90;75.63;101241.19;5060560;28;20143;-63